This is the latest recevied weather packets stored in our database for station/object VE6EN. If no packets are shown the sender has not sent any weather packets the latest 10 day(s).
| Time | Temp. | Humidity | Pressure | Rain* | Wind** | Luminosity | Snow |
|---|---|---|---|---|---|---|---|
| 1777680605 | 17.22° C | 31% | 1013.4 hPa | 0 mm | - | - | - |
| 1777680003 | 17.78° C | 30% | 1013.4 hPa | 0 mm | - | - | - |
| 1777679404 | 18.33° C | 28% | 1013.3 hPa | 0 mm | - | - | - |
| 1777678804 | 18.33° C | 28% | 1013.2 hPa | 0 mm | - | - | - |
| 1777678200 | 18.89° C | 25% | 1013.1 hPa | 0 mm | - | - | - |
| 1777677604 | 18.89° C | 24% | 1013.1 hPa | 0 mm | - | - | - |
| 1777677003 | 18.89° C | 25% | 1013.1 hPa | 0 mm | - | - | - |
| 1777676404 | 19.44° C | 23% | 1013.1 hPa | 0 mm | - | - | - |
| 1777675799 | 19.44° C | 24% | 1013.2 hPa | 0 mm | - | - | - |
| 1777675201 | 19.44° C | 22% | 1013.2 hPa | 0 mm | - | - | - |
| 1777674605 | 19.44° C | 22% | 1013.2 hPa | 0 mm | - | - | - |
| 1777674003 | 19.44° C | 24% | 1013.3 hPa | 0 mm | - | - | - |
| 1777673399 | 19.44° C | 24% | 1013.4 hPa | 0 mm | - | - | - |
| 1777672803 | 19.44° C | 23% | 1013.4 hPa | 0 mm | - | - | - |
| 1777672204 | 19.44° C | 25% | 1013.5 hPa | 0 mm | - | - | - |
| 1777671604 | 20° C | 23% | 1013.5 hPa | 0 mm | - | - | - |
| 1777671004 | 19.44° C | 25% | 1013.7 hPa | 0 mm | - | - | - |
| 1777670399 | 19.44° C | 23% | 1013.6 hPa | 0 mm | - | - | - |
| 1777669804 | 19.44° C | 24% | 1013.6 hPa | 0 mm | - | - | - |
| 1777669200 | 19.44° C | 25% | 1013.7 hPa | 0 mm | - | - | - |
| 1777668599 | 18.89° C | 26% | 1013.7 hPa | 0 mm | - | - | - |
| 1777667998 | 18.33° C | 26% | 1013.7 hPa | 0 mm | - | - | - |
| 1777667400 | 18.33° C | 26% | 1013.7 hPa | 0 mm | - | - | - |
| 1777666799 | 18.33° C | 26% | 1013.7 hPa | 0 mm | - | - | - |
| 1777666204 | 18.89° C | 26% | 1013.7 hPa | 0 mm | - | - | - |
* Rain latest hour (hover to see other rain measurements)
** Current wind speed in m/s (hover to see current wind gust speed)